Airfield :
LOGIN :

Register | Disclaimer

   EN    FR    IT 

 










Legend :    VFR   Marginal VFR   IFR   Intensive IFR   Very Intensive IFR
Visi :
Ceiling :
>= 8 km
>= 3000ft
5 to 8 km
1000 to 3000 ft
1500m to 5 km
500 to 1000 ft
800 to 1500m
200 to 500 ft
< 800m
< 200 ft
Symbols :   Thunderstorms  Fog  Heavy snow  Heavy precipitations  Wind > 20 kt
SIGMETs :     Misc.  Thunderstorms  Icing  Turbulence  Mountain Waves  Volcanic Ashes







- Airport Elevation : 375 ft
- IATA code : MST


EHBK - Maastricht Aachen

CURRENT METAR :
  • 252125Z AUTO 06013KT 9999 NSC 09/M02 Q1024 NOSIG

EXPIRED METARs :
  • 252055Z AUTO 05013KT 9999 NCD 09/M02 Q1024 NOSIG
  • 252025Z AUTO 05012KT 9999 NSC 09/M02 Q1023 NOSIG
  • 251955Z AUTO 05014KT 9999 NCD 10/M03 Q1023 NOSIG
  • 251925Z AUTO 05015KT 9999 NCD 10/M03 Q1023 NOSIG
  • 251855Z AUTO 04014KT 9999 NSC 11/M02 Q1023 NOSIG

TAF TAF EHBK
Valid from the 25 at 18:00 until the 27 at 00:00 UTC


251653Z 2518/2624 04015KT CAVOK
BECMG 2600/2603 07008KT
PROB30 2603/2607 6000
PROB30 2622/2624 6000
No reported NOTAMs for that airfield.



MET'MAP, your aeronautical weather chart ! - Copyright ORBIFLY December 2007 - Disclaimer

ORBIFLY MET'MAP TEAM :

Programming & Development : Alexandra Zaïnal
Concept & Development : Baudouin d'Aumeries
Co-Development & Prog : Marc-Olivier Méhu
Technical & hardware support : Manuel Goepfert

Contact : metmap@orbifly.com




SOURCES & CREDITS :

   NOAA